Time;durP1;ratioP1;P1;durP2;ratioP2;P2;SDS_P1;SDS_P2;PMS_P1;PMS_P2;Temp;Humidity;BMP_temperature;BMP_pressure;BME280_temperature;BME280_humidity;BME280_pressure;Samples;Min_cycle;Max_cycle;Signal;HPM_P1;HPM_P2
2022/01/19 00:00:10;;;;;;;199.77;25.08;;;;;;;2.47;98.45;103212.97;5050013;28;20326;-43
2022/01/19 00:02:35;;;;;;;269.33;24.45;;;;;;;2.30;98.56;103205.78;5059544;28;20111;-43
2022/01/19 00:05:00;;;;;;;352.52;26.95;;;;;;;2.31;98.08;103203.97;5040001;28;20061;-43
2022/01/19 00:07:26;;;;;;;249.05;24.70;;;;;;;2.26;98.39;103196.19;5047886;28;20392;-43
2022/01/19 00:09:51;;;;;;;149.35;22.33;;;;;;;2.22;97.85;103202.59;5054620;28;20068;-43
2022/01/19 00:12:16;;;;;;;150.30;26.90;;;;;;;2.18;98.69;103188.56;5041199;28;20071;-44
2022/01/19 00:14:42;;;;;;;197.50;23.83;;;;;;;2.06;98.87;103190.94;5034951;28;20041;-43
2022/01/19 00:17:07;;;;;;;263.35;25.15;;;;;;;1.97;99.03;103186.91;5035044;28;20535;-43
2022/01/19 00:19:32;;;;;;;198.48;26.75;;;;;;;1.92;98.54;103194.19;5035222;28;20029;-43
2022/01/19 00:21:58;;;;;;;146.48;25.45;;;;;;;1.98;99.75;103205.44;5043883;28;20033;-42
2022/01/19 00:24:23;;;;;;;116.45;21.98;;;;;;;1.95;100.00;103194.09;5051946;28;20056;-43
2022/01/19 00:26:48;;;;;;;219.40;22.42;;;;;;;1.91;100.00;103180.06;5034965;28;20415;-41
2022/01/19 00:29:14;;;;;;;256.13;25.50;;;;;;;1.88;99.83;103177.56;5034385;28;20381;-43
2022/01/19 00:31:39;;;;;;;259.52;24.90;;;;;;;1.71;99.85;103177.41;5041792;28;20028;-43
2022/01/19 00:34:04;;;;;;;202.02;23.70;;;;;;;1.70;98.92;103165.94;5047069;28;20373;-43
2022/01/19 00:36:30;;;;;;;269.58;26.77;;;;;;;1.71;99.61;103146.44;5034488;28;20099;-43
2022/01/19 00:38:55;;;;;;;88.50;22.30;;;;;;;1.73;99.27;103130.44;5041589;28;20036;-43
2022/01/19 00:41:20;;;;;;;54.65;20.00;;;;;;;1.69;99.39;103123.56;5049349;28;20038;-43
2022/01/19 00:43:46;;;;;;;141.45;24.15;;;;;;;1.74;99.32;103110.94;5034515;28;20366;-42
2022/01/19 00:46:11;;;;;;;50.33;20.00;;;;;;;1.77;99.24;103104.63;5034656;28;20038;-43
2022/01/19 00:48:37;;;;;;;61.47;21.95;;;;;;;1.84;99.32;103095.44;5033229;28;20021;-42
2022/01/19 00:51:02;;;;;;;175.45;24.60;;;;;;;1.83;99.07;103096.38;5035307;28;20044;-41
2022/01/19 00:53:28;;;;;;;273.00;31.38;;;;;;;1.70;98.87;103104.03;5033073;28;20065;-43
2022/01/19 00:55:53;;;;;;;155.63;22.27;;;;;;;1.61;98.27;103107.97;5034391;28;20033;-43
2022/01/19 00:58:19;;;;;;;162.60;22.45;;;;;;;1.63;98.75;103111.38;5032834;28;20021;-43
2022/01/19 01:00:44;;;;;;;235.98;23.48;;;;;;;1.68;98.57;103106.75;5032983;28;20042;-42
2022/01/19 01:03:10;;;;;;;194.88;24.25;;;;;;;1.70;98.29;103093.41;5053274;28;20060;-43
2022/01/19 01:05:35;;;;;;;258.85;24.70;;;;;;;1.51;98.23;103099.53;5052729;28;20040;-42
2022/01/19 01:08:01;;;;;;;195.60;21.83;;;;;;;1.49;98.03;103096.09;5035906;28;20037;-43
2022/01/19 01:10:27;;;;;;;216.50;24.38;;;;;;;1.32;97.69;103082.72;5033100;28;20033;-43
2022/01/19 01:12:55;;;;;;;55.97;18.42;;;;;;;1.30;97.79;103080.13;5045106;28;20078;-44
2022/01/19 01:20:39;;;;;;;79.50;21.55;;;;;;;1.31;99.45;103038.53;5053248;28;20043;-44
2022/01/19 01:23:05;;;;;;;62.33;20.25;;;;;;;1.33;99.51;103039.31;5034016;28;20359;-43
2022/01/19 01:25:31;;;;;;;107.05;22.08;;;;;;;1.27;99.68;103032.50;5032682;28;20128;-42
2022/01/19 01:27:56;;;;;;;85.70;22.02;;;;;;;1.25;98.89;103028.19;5032425;28;20099;-43
2022/01/19 01:30:22;;;;;;;62.47;18.70;;;;;;;1.28;98.97;103023.59;5033633;28;20409;-42
2022/01/19 01:32:47;;;;;;;117.35;21.25;;;;;;;1.27;98.90;103015.72;5046143;28;20393;-43
2022/01/19 01:35:12;;;;;;;103.90;22.83;;;;;;;1.22;98.71;102999.16;5033637;28;20118;-43
2022/01/19 01:37:38;;;;;;;135.40;21.30;;;;;;;1.13;98.60;103004.84;5033555;28;20108;-43
2022/01/19 01:40:05;;;;;;;124.57;20.88;;;;;;;1.07;98.29;103001.53;5033253;28;20035;-43
2022/01/19 01:42:30;;;;;;;71.43;20.25;;;;;;;1.00;98.48;102989.50;5047059;28;20032;-43
2022/01/19 01:44:59;;;;;;;70.47;20.67;;;;;;;1.00;98.36;102976.25;5053796;28;20056;-42
2022/01/19 01:47:26;;;;;;;48.72;18.70;;;;;;;1.03;99.50;102965.50;5052264;28;20024;-44
2022/01/19 01:55:11;;;;;;;59.35;20.73;;;;;;;1.02;99.68;102971.72;5033892;28;20032;-42
2022/01/19 01:57:36;;;;;;;49.33;20.08;;;;;;;1.00;99.28;102970.94;5033502;28;20128;-43
2022/01/19 02:00:04;;;;;;;50.88;19.52;;;;;;;0.96;99.14;102973.78;5037996;28;20105;-44
2022/01/19 02:02:29;;;;;;;53.67;20.45;;;;;;;0.95;99.61;102982.66;5035282;28;20029;-42
2022/01/19 02:04:55;;;;;;;54.13;20.08;;;;;;;0.95;99.60;102986.19;5033156;28;20032;-42
2022/01/19 02:07:39;;;;;;;52.03;20.15;;;;;;;1.04;99.29;102993.72;5032925;28;20041;-43
2022/01/19 02:10:07;;;;;;;53.13;20.25;;;;;;;1.10;99.14;102993.44;5033056;28;20116;-42
2022/01/19 02:23:39;;;;;;;50.47;20.52;;;;;;;1.41;100.00;102954.94;5039317;28;20056;-42
2022/01/19 02:26:14;;;;;;;52.28;19.80;;;;;;;1.44;99.62;102944.19;5033260;28;20037;-43
2022/01/19 02:50:32;;;;;;;54.38;19.80;;;;;;;1.42;99.07;102860.28;5052643;28;20039;-42
2022/01/19 02:52:57;;;;;;;44.58;17.67;;;;;;;1.35;98.38;102849.09;5055023;28;20046;-42
2022/01/19 02:55:23;;;;;;;58.55;20.10;;;;;;;1.28;98.00;102831.75;5054797;28;20123;-42
2022/01/19 02:57:49;;;;;;;43.88;18.98;;;;;;;1.22;97.99;102830.25;5040275;28;20061;-42
2022/01/19 03:08:47;;;;;;;62.60;20.80;;;;;;;1.37;99.31;102820.72;5053000;28;20095;-42
2022/01/19 03:11:18;;;;;;;54.80;21.65;;;;;;;1.34;99.16;102815.53;5053680;28;20472;-43
2022/01/19 03:13:47;;;;;;;59.45;21.05;;;;;;;1.39;99.01;102810.88;5036549;28;20030;-42
2022/01/19 03:16:14;;;;;;;65.63;23.30;;;;;;;1.40;99.42;102807.31;5036426;28;20029;-42
2022/01/19 03:18:40;;;;;;;74.25;25.98;;;;;;;1.41;98.69;102803.69;5036146;28;20029;-42
2022/01/19 03:21:06;;;;;;;70.95;24.48;;;;;;;1.49;99.20;102812.16;5036099;28;20056;-43
2022/01/19 03:23:32;;;;;;;75.40;25.05;;;;;;;1.56;99.22;102819.81;5036285;28;20057;-43
2022/01/19 03:25:58;;;;;;;87.60;25.52;;;;;;;1.63;99.59;102819.44;5036277;28;20130;-42
2022/01/19 03:28:23;;;;;;;108.45;30.00;;;;;;;1.77;99.65;102818.78;5036068;28;20461;-42
2022/01/19 03:30:49;;;;;;;79.13;24.98;;;;;;;1.90;99.62;102811.91;5036213;28;20116;-43
2022/01/19 03:33:14;;;;;;;62.30;23.40;;;;;;;1.92;99.23;102810.03;5035895;28;20473;-42
2022/01/19 03:35:40;;;;;;;75.85;25.20;;;;;;;1.85;97.76;102791.84;5036015;28;20056;-42
2022/01/19 03:38:07;;;;;;;115.68;30.27;;;;;;;1.95;98.38;102791.28;5053444;28;20044;-42
2022/01/19 03:40:33;;;;;;;135.48;35.10;;;;;;;2.11;98.97;102801.13;5055757;28;20052;-42
2022/01/19 03:42:59;;;;;;;111.75;30.85;;;;;;;2.21;98.98;102807.66;5038160;28;20029;-42
2022/01/19 03:45:24;;;;;;;104.00;29.55;;;;;;;2.31;99.43;102814.22;5035769;28;20034;-42
2022/01/19 03:48:09;;;;;;;95.72;31.95;;;;;;;2.41;99.23;102814.63;5050816;28;20465;-42
2022/01/19 03:50:35;;;;;;;107.82;32.42;;;;;;;2.49;99.82;102814.22;5055750;28;20373;-42
2022/01/19 03:53:01;;;;;;;109.63;32.42;;;;;;;2.58;99.33;102816.38;5055725;28;20025;-42
2022/01/19 03:55:27;;;;;;;96.07;29.75;;;;;;;2.60;98.39;102809.19;5055116;28;20469;-42
2022/01/19 03:57:52;;;;;;;104.45;31.63;;;;;;;2.67;98.79;102799.94;5037301;28;20037;-41
2022/01/19 04:00:19;;;;;;;111.22;32.65;;;;;;;2.73;98.61;102786.31;5036130;28;20025;-42
2022/01/19 04:02:45;;;;;;;115.90;33.88;;;;;;;2.76;98.85;102780.81;5034895;28;20029;-42
2022/01/19 04:06:01;;;;;;;125.72;32.72;;;;;;;2.83;98.65;102787.53;5032107;28;20079;-42
2022/01/19 04:07:56;;;;;;;125.47;36.47;;;;;;;2.91;98.24;102786.25;5034011;28;20041;-42
2022/01/19 04:10:21;;;;;;;126.40;34.65;;;;;;;2.95;98.99;102779.81;5035211;28;20393;-42
2022/01/19 04:12:54;;;;;;;136.75;35.47;;;;;;;3.01;98.84;102782.16;5038572;28;20041;-42
2022/01/19 04:15:20;;;;;;;130.10;35.35;;;;;;;3.05;98.57;102773.03;5035229;28;20025;-43
2022/01/19 04:17:53;;;;;;;121.80;36.35;;;;;;;3.08;98.40;102780.84;5049903;28;20170;-42
2022/01/19 04:20:24;;;;;;;119.43;34.50;;;;;;;3.11;97.64;102779.81;5051264;28;20385;-42
2022/01/19 04:22:49;;;;;;;122.90;35.65;;;;;;;3.14;98.29;102777.00;5044523;28;20021;-42
2022/01/19 04:25:15;;;;;;;121.72;36.03;;;;;;;3.17;98.25;102771.50;5054843;28;20036;-43
2022/01/19 04:27:42;;;;;;;121.45;36.70;;;;;;;3.19;98.20;102765.16;5038797;28;20112;-42
2022/01/19 04:30:10;;;;;;;118.47;34.37;;;;;;;3.22;98.45;102761.47;5035007;28;20091;-43
2022/01/19 04:35:10;;;;;;;115.13;34.95;;;;;;;3.23;98.34;102758.69;5035199;28;19935;-42
2022/01/19 04:46:46;;;;;;;110.82;32.83;;;;;;;3.23;98.25;102733.91;5047511;28;20032;-42
2022/01/19 05:15:42;;;;;;;135.80;38.78;;;;;;;3.47;98.41;102697.03;5035715;28;20067;-42
2022/01/19 05:18:08;;;;;;;141.95;39.63;;;;;;;3.50;98.29;102700.38;5033414;28;20021;-42
2022/01/19 05:20:33;;;;;;;143.82;39.22;;;;;;;3.53;98.30;102704.66;5033310;28;20108;-42
2022/01/19 05:22:58;;;;;;;139.30;39.78;;;;;;;3.58;98.47;102691.06;5046605;28;20032;-42
2022/01/19 05:25:24;;;;;;;143.82;40.05;;;;;;;3.60;98.64;102684.69;5051549;28;20036;-42
2022/01/19 05:27:49;;;;;;;149.07;41.78;;;;;;;3.64;98.79;102682.72;5053026;28;20029;-42
2022/01/19 05:30:17;;;;;;;142.63;39.83;;;;;;;3.67;98.98;102683.41;5047298;28;20456;-42
2022/01/19 05:32:43;;;;;;;155.50;43.70;;;;;;;3.70;98.65;102679.69;5050980;28;20103;-42
2022/01/19 05:35:08;;;;;;;130.32;39.28;;;;;;;3.72;98.51;102673.31;5052343;28;20473;-43
2022/01/19 05:37:36;;;;;;;139.00;39.40;;;;;;;3.72;98.24;102662.69;5044100;28;20056;-42
2022/01/19 05:40:07;;;;;;;140.27;39.72;;;;;;;3.74;97.90;102674.09;5032077;28;20032;-43
2022/01/19 05:42:32;;;;;;;133.23;39.20;;;;;;;3.74;97.71;102662.59;5034417;28;20034;-42
2022/01/19 05:44:57;;;;;;;129.55;38.65;;;;;;;3.77;98.35;102653.56;5032979;28;20033;-43
2022/01/19 05:47:23;;;;;;;142.13;40.38;;;;;;;3.79;98.24;102651.63;5049498;28;20059;-43
2022/01/19 05:49:48;;;;;;;135.82;40.42;;;;;;;3.82;98.55;102640.78;5038310;28;20103;-42
2022/01/19 05:52:13;;;;;;;152.48;41.95;;;;;;;3.83;98.45;102645.19;5038599;28;20025;-43
2022/01/19 05:54:39;;;;;;;143.80;41.25;;;;;;;3.82;98.10;102632.81;5049300;28;20183;-42
2022/01/19 05:57:04;;;;;;;145.90;40.30;;;;;;;3.82;98.31;102627.47;5032784;28;20100;-42
2022/01/19 05:59:30;;;;;;;148.30;40.65;;;;;;;3.83;98.10;102622.06;5032827;28;20370;-43
2022/01/19 06:01:55;;;;;;;144.43;43.67;;;;;;;3.86;98.37;102615.69;5052763;28;20028;-42
2022/01/19 06:04:21;;;;;;;160.32;44.17;;;;;;;3.86;98.31;102613.03;5060523;28;20477;-42
2022/01/19 06:06:49;;;;;;;162.77;43.38;;;;;;;3.90;98.51;102604.75;5072207;28;20449;-43
2022/01/19 06:09:50;;;;;;;140.90;41.58;;;;;;;3.96;98.25;102606.19;5071153;28;20048;-42
2022/01/19 06:12:08;;;;;;;162.07;46.45;;;;;;;3.94;98.31;102602.75;5046716;28;20044;-42
2022/01/19 06:14:35;;;;;;;149.40;43.97;;;;;;;3.94;97.72;102597.44;5032605;28;20064;-42
2022/01/19 06:17:01;;;;;;;144.07;45.28;;;;;;;3.98;97.89;102588.31;5041613;28;20021;-42
2022/01/19 06:19:27;;;;;;;149.80;43.88;;;;;;;4.03;98.31;102586.22;5043631;28;20060;-42
2022/01/19 06:21:53;;;;;;;147.02;43.28;;;;;;;4.01;97.53;102572.13;5049370;28;20480;-47
2022/01/19 06:25:59;;;;;;;144.38;45.72;;;;;;;4.10;97.56;102571.53;5063616;28;20368;-41
2022/01/19 06:28:25;;;;;;;172.43;49.67;;;;;;;4.09;97.42;102571.66;5067185;28;20043;-42
2022/01/19 06:30:50;;;;;;;164.65;49.22;;;;;;;4.10;97.30;102566.19;5067584;28;20191;-43
2022/01/19 06:33:15;;;;;;;160.63;49.00;;;;;;;4.12;97.36;102568.78;5066403;28;20509;-43
2022/01/19 06:35:41;;;;;;;164.93;53.42;;;;;;;4.11;97.33;102561.75;5064674;28;20021;-43
2022/01/19 06:38:06;;;;;;;150.63;48.88;;;;;;;4.12;97.21;102561.63;5066971;28;20392;-41
2022/01/19 06:40:31;;;;;;;179.77;53.88;;;;;;;4.16;97.30;102562.28;5063533;28;20500;-41
2022/01/19 06:42:57;;;;;;;183.82;55.85;;;;;;;4.15;96.99;102555.25;5067429;28;20033;-41
2022/01/19 06:45:23;;;;;;;175.73;53.85;;;;;;;4.16;96.95;102549.84;5067395;28;20020;-41
2022/01/19 06:47:48;;;;;;;185.43;57.15;;;;;;;4.17;96.77;102556.88;5067300;28;20032;-41
2022/01/19 06:50:18;;;;;;;187.15;58.42;;;;;;;4.21;96.40;102540.69;5061888;28;20037;-41
2022/01/19 06:52:44;;;;;;;183.38;57.63;;;;;;;4.25;95.65;102535.06;5058791;28;20028;-42
2022/01/19 06:55:09;;;;;;;174.07;56.95;;;;;;;4.29;94.92;102533.91;5049362;28;20021;-42
2022/01/19 06:57:35;;;;;;;158.70;55.33;;;;;;;4.34;93.79;102538.94;5067570;28;20488;-42
2022/01/19 07:00:00;;;;;;;158.45;55.92;;;;;;;4.39;93.82;102539.50;5066402;28;20388;-42
2022/01/19 07:02:28;;;;;;;167.05;58.03;;;;;;;4.41;94.06;102534.91;5067353;28;20033;-42
2022/01/19 07:04:53;;;;;;;187.75;57.60;;;;;;;4.44;94.25;102532.03;5066699;28;20031;-42
2022/01/19 07:07:19;;;;;;;201.68;60.03;;;;;;;4.44;94.07;102529.38;5067261;28;20049;-42
2022/01/19 07:09:45;;;;;;;182.10;59.13;;;;;;;4.45;94.54;102527.56;5064797;28;20112;-42
2022/01/19 07:12:10;;;;;;;175.15;57.63;;;;;;;4.44;94.33;102526.72;5066329;28;20029;-43
2022/01/19 07:14:36;;;;;;;177.27;56.47;;;;;;;4.44;93.96;102529.38;5064241;28;20029;-42
2022/01/19 07:17:01;;;;;;;178.82;55.78;;;;;;;4.46;93.66;102524.81;5067022;28;20072;-42
2022/01/19 07:19:26;;;;;;;177.55;58.75;;;;;;;4.48;94.22;102509.56;5066471;28;20094;-42
2022/01/19 07:21:52;;;;;;;169.02;56.33;;;;;;;4.48;94.18;102512.25;5066412;28;20027;-42
2022/01/19 07:24:17;;;;;;;165.73;57.80;;;;;;;4.49;93.72;102503.28;5066023;28;20458;-42
2022/01/19 07:26:42;;;;;;;150.68;53.83;;;;;;;4.50;93.05;102504.13;5066880;28;20435;-42
2022/01/19 07:29:08;;;;;;;157.02;55.08;;;;;;;4.52;92.93;102513.72;5066277;28;20051;-42
2022/01/19 07:31:33;;;;;;;164.07;54.92;;;;;;;4.53;92.76;102512.78;5065369;28;20121;-42
2022/01/19 07:33:58;;;;;;;163.90;56.17;;;;;;;4.57;93.23;102514.28;5060869;28;20037;-42
2022/01/19 07:36:24;;;;;;;167.70;57.42;;;;;;;4.57;93.49;102522.28;5054788;28;20029;-42
2022/01/19 07:38:49;;;;;;;166.75;56.75;;;;;;;4.58;93.63;102513.34;5053317;28;20034;-41
2022/01/19 07:41:14;;;;;;;162.52;54.97;;;;;;;4.55;93.23;102508.19;5051679;28;20029;-42
2022/01/19 07:43:40;;;;;;;157.65;53.13;;;;;;;4.56;93.14;102504.59;5044986;28;20052;-43
2022/01/19 07:46:05;;;;;;;166.20;55.13;;;;;;;4.57;92.93;102492.94;5053583;28;20063;-44
2022/01/19 07:48:31;;;;;;;165.40;55.47;;;;;;;4.57;92.95;102495.63;5046507;28;20072;-44
2022/01/19 07:50:56;;;;;;;165.38;55.00;;;;;;;4.57;92.58;102484.94;5044180;28;20128;-43
2022/01/19 07:53:21;;;;;;;169.48;55.83;;;;;;;4.58;92.70;102481.34;5051167;28;20098;-44
2022/01/19 07:55:49;;;;;;;160.10;54.72;;;;;;;4.58;92.90;102486.69;5050207;28;20025;-42
2022/01/19 07:58:14;;;;;;;162.15;53.67;;;;;;;4.62;93.06;102488.16;5049921;28;20037;-42
2022/01/19 08:00:42;;;;;;;169.60;54.92;;;;;;;4.62;92.45;102480.16;5051111;28;20489;-42
2022/01/19 08:03:07;;;;;;;171.33;55.80;;;;;;;4.61;92.87;102480.28;5052607;28;20029;-43
2022/01/19 08:05:32;;;;;;;171.93;56.22;;;;;;;4.64;92.86;102476.56;5051455;28;20029;-42
2022/01/19 08:07:58;;;;;;;168.00;55.00;;;;;;;4.61;92.85;102464.28;5044035;28;20168;-41
2022/01/19 08:10:23;;;;;;;152.05;54.25;;;;;;;4.63;93.06;102457.00;5049497;28;20040;-41
2022/01/19 08:12:51;;;;;;;154.55;54.80;;;;;;;4.62;92.89;102455.31;5047186;28;20056;-40
2022/01/19 08:15:16;;;;;;;158.65;55.00;;;;;;;4.64;92.77;102455.22;5032987;28;20032;-41
2022/01/19 08:17:42;;;;;;;167.82;53.00;;;;;;;4.65;92.29;102452.44;5034161;28;20030;-41
2022/01/19 08:20:07;;;;;;;174.05;54.75;;;;;;;4.67;92.12;102447.00;5037414;28;20033;-41
2022/01/19 08:22:33;;;;;;;156.60;53.80;;;;;;;4.70;91.88;102436.97;5034085;28;20041;-42
2022/01/19 08:24:58;;;;;;;159.35;53.67;;;;;;;4.69;92.26;102445.09;5036770;28;20048;-42
2022/01/19 08:27:23;;;;;;;148.70;52.63;;;;;;;4.74;92.05;102453.63;5046004;28;20021;-41
2022/01/19 08:29:49;;;;;;;162.13;51.95;;;;;;;4.75;91.84;102450.00;5042026;28;20087;-41
2022/01/19 08:32:14;;;;;;;156.27;50.53;;;;;;;4.75;91.90;102445.53;5049122;28;20072;-42
2022/01/19 08:34:39;;;;;;;160.95;52.33;;;;;;;4.79;92.13;102446.16;5033506;28;20117;-42
2022/01/19 08:37:05;;;;;;;151.35;49.72;;;;;;;4.81;92.37;102446.91;5052403;28;20032;-42
2022/01/19 08:39:30;;;;;;;161.20;51.95;;;;;;;4.77;92.20;102437.44;5047836;28;20102;-41
2022/01/19 08:41:55;;;;;;;160.50;51.50;;;;;;;4.77;92.29;102434.75;5039285;28;20116;-41
2022/01/19 08:44:21;;;;;;;146.18;49.03;;;;;;;4.77;92.30;102432.09;5049906;28;20036;-41
2022/01/19 08:46:47;;;;;;;157.98;51.20;;;;;;;4.75;92.18;102431.34;5061711;28;20033;-43
2022/01/19 08:49:14;;;;;;;155.30;52.38;;;;;;;4.77;92.60;102426.75;5047615;28;20075;-41
2022/01/19 08:51:39;;;;;;;158.43;49.33;;;;;;;4.77;92.30;102424.09;5037011;28;20489;-41
2022/01/19 08:54:05;;;;;;;156.00;49.30;;;;;;;4.78;92.57;102418.63;5038281;28;20025;-40
2022/01/19 08:56:30;;;;;;;139.07;47.70;;;;;;;4.78;92.27;102415.13;5051671;28;20064;-41
2022/01/19 08:58:56;;;;;;;139.18;46.67;;;;;;;4.79;92.01;102411.47;5052725;28;20024;-41
2022/01/19 09:01:22;;;;;;;140.18;47.05;;;;;;;4.80;91.96;102408.72;5050238;28;20083;-41
2022/01/19 09:03:47;;;;;;;139.98;47.25;;;;;;;4.83;91.59;102405.00;5047525;28;20033;-41
2022/01/19 09:06:13;;;;;;;138.60;45.92;;;;;;;4.79;91.89;102398.16;5050310;28;20396;-42
2022/01/19 09:08:38;;;;;;;130.75;45.85;;;;;;;4.81;91.53;102393.56;5049072;28;20032;-41
2022/01/19 09:11:05;;;;;;;148.18;47.28;;;;;;;4.82;91.52;102388.13;5046289;28;20493;-41
2022/01/19 09:13:31;;;;;;;139.07;45.42;;;;;;;4.84;91.65;102385.34;5032749;28;20021;-42
2022/01/19 09:15:56;;;;;;;148.68;47.65;;;;;;;4.88;91.97;102386.84;5033207;28;20109;-42
2022/01/19 09:18:21;;;;;;;136.30;45.40;;;;;;;4.88;92.15;102378.84;5033331;28;20033;-42
2022/01/19 09:20:47;;;;;;;139.65;46.05;;;;;;;4.87;92.14;102374.50;5044779;28;20053;-42
2022/01/19 09:23:13;;;;;;;136.93;44.00;;;;;;;4.86;91.80;102370.09;5053187;28;20032;-42
2022/01/19 09:25:39;;;;;;;168.57;48.75;;;;;;;4.84;92.05;102359.53;5050355;28;20047;-42
2022/01/19 09:28:04;;;;;;;159.80;49.13;;;;;;;4.76;92.38;102358.34;5052944;28;20021;-42
2022/01/19 09:30:29;;;;;;;159.15;47.03;;;;;;;4.63;92.52;102371.69;5052603;28;20086;-42
2022/01/19 09:33:05;;;;;;;167.18;49.05;;;;;;;4.58;92.64;102356.03;5052432;28;20385;-42
2022/01/19 09:35:40;;;;;;;184.10;51.55;;;;;;;4.50;92.93;102354.81;5052673;28;20029;-42
2022/01/19 09:38:05;;;;;;;165.15;48.33;;;;;;;4.47;93.33;102353.22;5045907;28;20588;-42
2022/01/19 09:40:30;;;;;;;164.50;47.22;;;;;;;4.39;93.69;102350.22;5036794;28;20045;-43
2022/01/19 09:42:56;;;;;;;153.32;45.60;;;;;;;4.36;93.99;102363.75;5035546;28;20029;-40
2022/01/19 09:45:21;;;;;;;170.10;46.72;;;;;;;4.36;94.17;102369.09;5041346;28;20045;-42
2022/01/19 09:47:46;;;;;;;156.32;43.92;;;;;;;4.35;94.68;102372.72;5036984;28;20026;-43
2022/01/19 09:50:12;;;;;;;166.38;47.80;;;;;;;4.37;94.39;102369.00;5037702;28;20059;-43
2022/01/19 09:52:38;;;;;;;152.32;45.30;;;;;;;4.41;94.53;102377.63;5032742;28;20032;-43
2022/01/19 09:55:03;;;;;;;163.15;48.00;;;;;;;4.44;94.62;102385.41;5030055;28;20033;-42
2022/01/19 09:57:32;;;;;;;150.40;47.47;;;;;;;4.41;94.81;102377.63;5039418;28;20067;-44
2022/01/19 09:59:58;;;;;;;165.73;47.88;;;;;;;4.43;94.68;102370.41;5030858;28;20032;-43
2022/01/19 10:02:23;;;;;;;150.93;44.90;;;;;;;4.45;95.09;102383.59;5043418;28;20037;-41
2022/01/19 10:04:49;;;;;;;159.88;46.67;;;;;;;4.47;95.00;102374.53;5047407;28;20025;-41
2022/01/19 10:07:15;;;;;;;150.18;45.05;;;;;;;4.50;95.16;102374.34;5031991;28;20417;-41
2022/01/19 10:10:10;;;;;;;155.85;46.60;;;;;;;4.53;95.24;102371.47;5045272;28;20070;-42
2022/01/19 10:18:26;;;;;;;140.88;44.65;;;;;;;4.64;94.64;102356.56;5030362;28;20045;-41
2022/01/19 10:21:12;;;;;;;148.90;44.97;;;;;;;4.60;94.60;102346.06;5039563;28;20035;-42
2022/01/19 10:23:41;;;;;;;144.43;45.10;;;;;;;4.67;94.78;102357.19;5059246;28;20025;-42
2022/01/19 10:26:09;;;;;;;135.38;44.50;;;;;;;4.71;94.61;102357.81;5043484;28;20044;-42
2022/01/19 10:29:03;;;;;;;152.93;45.13;;;;;;;4.70;94.41;102353.47;5047379;28;20449;-41
2022/01/19 10:31:30;;;;;;;147.57;45.72;;;;;;;4.67;94.48;102373.19;5038714;28;20044;-41
2022/01/19 10:34:18;;;;;;;158.50;46.05;;;;;;;4.69;94.49;102354.44;5041610;28;20037;-42
2022/01/19 10:36:51;;;;;;;142.40;46.28;;;;;;;4.70;94.50;102338.31;5027452;28;20053;-41
2022/01/19 10:39:19;;;;;;;149.90;45.65;;;;;;;4.79;94.42;102321.66;5028987;28;20029;-42
2022/01/19 10:42:04;;;;;;;146.40;45.92;;;;;;;4.88;94.22;102322.81;5028750;28;20215;-42
2022/01/19 10:44:33;;;;;;;144.93;45.80;;;;;;;4.97;94.25;102310.63;5036303;28;20028;-42
2022/01/19 10:46:59;;;;;;;147.93;47.72;;;;;;;5.09;93.72;102299.09;5046985;28;20551;-41
2022/01/19 10:49:25;;;;;;;146.00;46.65;;;;;;;5.33;92.40;102304.47;5044096;28;20029;-42
2022/01/19 10:51:57;;;;;;;136.82;46.38;;;;;;;5.54;91.57;102314.56;5047899;28;20049;-42
2022/01/19 10:54:25;;;;;;;157.93;44.50;;;;;;;5.73;90.40;102306.88;5041404;28;20060;-42
2022/01/19 10:56:57;;;;;;;136.90;43.38;;;;;;;5.77;90.07;102278.97;5031062;28;20041;-42
2022/01/19 10:59:32;;;;;;;121.40;39.80;;;;;;;6.10;89.45;102290.75;5028603;28;20033;-43
2022/01/19 11:02:00;;;;;;;118.00;36.70;;;;;;;6.50;87.35;102285.00;5035043;28;20080;-42
2022/01/19 11:04:26;;;;;;;112.97;34.78;;;;;;;6.43;85.36;102283.81;5048259;28;20384;-42
2022/01/19 11:07:05;;;;;;;118.70;35.72;;;;;;;6.68;86.15;102275.53;5048336;28;20029;-42
2022/01/19 11:09:32;;;;;;;95.63;31.88;;;;;;;7.08;84.01;102280.38;5048594;28;20029;-42
2022/01/19 11:12:06;;;;;;;87.25;28.73;;;;;;;7.55;81.66;102272.97;5050752;28;20024;-42
2022/01/19 11:14:32;;;;;;;56.13;15.65;;;;;;;7.97;78.38;102267.66;5052141;28;20150;-41
2022/01/19 11:16:58;;;;;;;33.28;6.07;;;;;;;7.90;74.34;102263.81;5051654;28;20033;-43
2022/01/19 11:19:24;;;;;;;34.72;6.47;;;;;;;7.89;75.64;102246.88;5052193;28;20509;-41
2022/01/19 11:22:15;;;;;;;30.33;4.90;;;;;;;7.59;75.28;102244.09;5044145;28;20041;-42
2022/01/19 11:25:08;;;;;;;28.38;6.15;;;;;;;7.35;75.76;102242.47;5038115;28;20466;-41
2022/01/19 11:27:39;;;;;;;28.02;4.72;;;;;;;7.04;75.56;102228.91;5047903;28;20021;-43
2022/01/19 11:30:13;;;;;;;22.15;4.22;;;;;;;6.71;76.88;102227.13;5051519;28;20241;-41
2022/01/19 11:32:40;;;;;;;23.60;4.57;;;;;;;6.67;78.45;102219.50;5050399;28;20524;-43
2022/01/19 11:35:06;;;;;;;26.27;5.60;;;;;;;6.58;78.67;102210.34;5048073;28;20032;-42
2022/01/19 11:37:40;;;;;;;25.95;5.57;;;;;;;6.56;78.61;102206.97;5041988;28;20033;-43
2022/01/19 11:40:15;;;;;;;29.85;5.60;;;;;;;6.55;78.81;102210.59;5054265;28;20392;-42
2022/01/19 11:42:43;;;;;;;31.40;5.25;;;;;;;6.62;79.84;102198.44;5051724;28;20074;-42
2022/01/19 11:45:30;;;;;;;22.42;5.68;;;;;;;6.60;79.03;102203.06;5054398;28;20023;-42
2022/01/19 11:48:41;;;;;;;40.45;5.22;;;;;;;6.57;79.44;102197.97;5038227;28;20037;-42
2022/01/19 11:51:34;;;;;;;29.65;5.00;;;;;;;6.44;79.65;102186.53;5040861;28;20037;-42
2022/01/19 11:54:22;;;;;;;28.25;5.97;;;;;;;6.33;79.95;102174.88;5042024;28;20025;-42
2022/01/19 11:57:02;;;;;;;20.98;4.28;;;;;;;6.31;79.99;102175.97;5040261;28;20040;-42
2022/01/19 11:59:34;;;;;;;30.67;5.78;;;;;;;6.36;80.90;102168.44;5038091;28;20038;-42
2022/01/19 12:02:21;;;;;;;33.67;6.90;;;;;;;6.37;81.26;102164.78;5041622;28;20059;-42
2022/01/19 12:04:50;;;;;;;32.92;6.70;;;;;;;6.32;81.42;102162.50;5046334;28;20497;-41
2022/01/19 12:07:41;;;;;;;22.60;5.32;;;;;;;6.29;81.37;102160.06;5066637;28;20040;-41
2022/01/19 12:10:11;;;;;;;24.27;5.00;;;;;;;6.26;81.63;102154.94;5071548;28;20040;-41
2022/01/19 12:12:47;;;;;;;43.42;6.80;;;;;;;6.25;81.65;102139.88;5064836;28;20045;-42
2022/01/19 12:15:59;;;;;;;34.25;6.43;;;;;;;6.26;82.12;102141.56;5044070;28;20120;-41
2022/01/19 12:18:40;;;;;;;29.65;6.15;;;;;;;6.30;82.16;102145.72;5029937;28;20041;-42
2022/01/19 12:21:08;;;;;;;26.00;5.90;;;;;;;6.30;81.96;102142.19;5060302;28;20071;-42
2022/01/19 12:23:35;;;;;;;38.00;7.05;;;;;;;6.31;82.49;102139.38;5039353;28;20055;-42
2022/01/19 12:26:01;;;;;;;36.67;6.38;;;;;;;6.32;82.76;102133.06;5047369;28;20435;-42
2022/01/19 12:29:03;;;;;;;31.40;6.72;;;;;;;6.25;82.67;102139.88;5043288;28;20032;-42
2022/01/19 12:31:33;;;;;;;38.05;6.30;;;;;;;6.24;82.80;102122.16;5046161;28;20045;-42
2022/01/19 12:34:04;;;;;;;38.40;6.40;;;;;;;6.22;83.25;102107.19;5045853;28;20040;-42
2022/01/19 12:36:56;;;;;;;30.98;6.65;;;;;;;6.21;83.40;102103.66;5050154;28;20047;-42
2022/01/19 12:39:24;;;;;;;26.77;7.78;;;;;;;6.20;83.29;102093.94;5050287;28;20044;-42
2022/01/19 12:41:59;;;;;;;31.90;7.07;;;;;;;6.23;82.81;102098.19;5050428;28;20021;-42
2022/01/19 12:44:38;;;;;;;33.78;6.40;;;;;;;6.25;82.74;102091.75;5049734;28;20052;-42
2022/01/19 12:47:25;;;;;;;32.50;6.45;;;;;;;6.27;83.27;102079.13;5050106;28;20037;-43
2022/01/19 12:50:03;;;;;;;29.73;7.13;;;;;;;6.28;83.14;102075.47;5050090;28;20480;-42
2022/01/19 12:52:32;;;;;;;45.00;7.63;;;;;;;6.28;82.84;102072.78;5050154;28;20043;-42
2022/01/19 12:54:59;;;;;;;;;;;;;;;6.26;83.10;102074.72;5049248;28;20045;-42